sensor_id;sensor_type;location;lat;lon;timestamp;pressure;altitude;pressure_sealevel;temperature;humidity
9229;BME280;4649;42.644;23.284;2023-04-25T00:01:16;92179.00;;;9.71;100.00
9229;BME280;4649;42.644;23.284;2023-04-25T00:03:48;92107.63;;;9.14;100.00
9229;BME280;4649;42.644;23.284;2023-04-25T00:06:19;92196.09;;;9.79;100.00
9229;BME280;4649;42.644;23.284;2023-04-25T00:12:08;92315.28;;;10.77;100.00
9229;BME280;4649;42.644;23.284;2023-04-25T00:14:54;92081.31;;;9.44;100.00
9229;BME280;4649;42.644;23.284;2023-04-25T00:17:30;92295.84;;;10.78;100.00
9229;BME280;4649;42.644;23.284;2023-04-25T00:20:00;92155.47;;;9.90;100.00
9229;BME280;4649;42.644;23.284;2023-04-25T00:22:46;92290.88;;;10.82;100.00
9229;BME280;4649;42.644;23.284;2023-04-25T00:25:16;92219.59;;;10.37;100.00
9229;BME280;4649;42.644;23.284;2023-04-25T00:28:01;92111.75;;;9.68;100.00
9229;BME280;4649;42.644;23.284;2023-04-25T00:31:00;92270.63;;;10.89;100.00
9229;BME280;4649;42.644;23.284;2023-04-25T00:33:45;92083.22;;;9.49;100.00
9229;BME280;4649;42.644;23.284;2023-04-25T00:36:21;92145.81;;;9.95;100.00
9229;BME280;4649;42.644;23.284;2023-04-25T00:39:01;92272.28;;;10.92;100.00
9229;BME280;4649;42.644;23.284;2023-04-25T00:41:31;92265.19;;;10.89;100.00
9229;BME280;4649;42.644;23.284;2023-04-25T00:47:36;92275.94;;;10.94;100.00
9229;BME280;4649;42.644;23.284;2023-04-25T00:50:29;92077.59;;;9.47;100.00
9229;BME280;4649;42.644;23.284;2023-04-25T00:53:27;92200.28;;;10.28;100.00
9229;BME280;4649;42.644;23.284;2023-04-25T00:56:04;92081.63;;;9.11;100.00
9229;BME280;4649;42.644;23.284;2023-04-25T00:59:05;92167.97;;;9.46;100.00
9229;BME280;4649;42.644;23.284;2023-04-25T01:04:35;92186.97;;;9.82;100.00
9229;BME280;4649;42.644;23.284;2023-04-25T01:07:34;92186.53;;;9.55;100.00
9229;BME280;4649;42.644;23.284;2023-04-25T01:10:11;92111.19;;;8.98;100.00
9229;BME280;4649;42.644;23.284;2023-04-25T01:16:18;92200.19;;;9.62;100.00
9229;BME280;4649;42.644;23.284;2023-04-25T01:19:12;92065.66;;;8.89;100.00
9229;BME280;4649;42.644;23.284;2023-04-25T01:28:53;92043.16;;;8.81;100.00
9229;BME280;4649;42.644;23.284;2023-04-25T01:31:39;92049.47;;;8.89;100.00
9229;BME280;4649;42.644;23.284;2023-04-25T01:34:22;92170.44;;;9.91;100.00
9229;BME280;4649;42.644;23.284;2023-04-25T01:36:54;92205.41;;;10.08;100.00
9229;BME280;4649;42.644;23.284;2023-04-25T01:39:40;92072.69;;;8.98;100.00
9229;BME280;4649;42.644;23.284;2023-04-25T01:43:08;92126.53;;;9.38;100.00
9229;BME280;4649;42.644;23.284;2023-04-25T01:46:11;92076.22;;;8.87;100.00
9229;BME280;4649;42.644;23.284;2023-04-25T01:49:14;92260.34;;;10.21;100.00
9229;BME280;4649;42.644;23.284;2023-04-25T01:52:32;92262.44;;;10.10;100.00
9229;BME280;4649;42.644;23.284;2023-04-25T01:55:24;92159.81;;;9.22;100.00
9229;BME280;4649;42.644;23.284;2023-04-25T01:58:09;92047.84;;;8.51;100.00
9229;BME280;4649;42.644;23.284;2023-04-25T02:03:53;92259.16;;;10.17;100.00
9229;BME280;4649;42.644;23.284;2023-04-25T02:06:39;92016.94;;;8.52;100.00
9229;BME280;4649;42.644;23.284;2023-04-25T02:09:54;92041.50;;;8.44;100.00
9229;BME280;4649;42.644;23.284;2023-04-25T02:12:40;92261.22;;;10.05;100.00
9229;BME280;4649;42.644;23.284;2023-04-25T02:15:25;92239.31;;;9.56;100.00
9229;BME280;4649;42.644;23.284;2023-04-25T02:18:21;92108.44;;;8.74;100.00
9229;BME280;4649;42.644;23.284;2023-04-25T02:24:39;92089.59;;;8.69;100.00
9229;BME280;4649;42.644;23.284;2023-04-25T02:27:41;92014.78;;;8.11;100.00
9229;BME280;4649;42.644;23.284;2023-04-25T02:35:46;92055.13;;;8.56;100.00
9229;BME280;4649;42.644;23.284;2023-04-25T02:38:15;92217.03;;;9.73;100.00
9229;BME280;4649;42.644;23.284;2023-04-25T02:44:37;92214.13;;;9.71;100.00
9229;BME280;4649;42.644;23.284;2023-04-25T02:47:37;91985.44;;;8.02;100.00
9229;BME280;4649;42.644;23.284;2023-04-25T02:50:21;92008.72;;;7.99;100.00
9229;BME280;4649;42.644;23.284;2023-04-25T02:56:20;92142.72;;;8.79;100.00
9229;BME280;4649;42.644;23.284;2023-04-25T02:59:22;92148.44;;;8.70;100.00
9229;BME280;4649;42.644;23.284;2023-04-25T03:02:10;91950.25;;;7.54;100.00
9229;BME280;4649;42.644;23.284;2023-04-25T03:04:39;92054.63;;;8.29;100.00
9229;BME280;4649;42.644;23.284;2023-04-25T03:07:24;92188.97;;;9.29;100.00
9229;BME280;4649;42.644;23.284;2023-04-25T03:10:22;91973.16;;;7.72;100.00
9229;BME280;4649;42.644;23.284;2023-04-25T03:16:04;92170.03;;;9.34;100.00
9229;BME280;4649;42.644;23.284;2023-04-25T03:21:48;92174.47;;;9.56;100.00
9229;BME280;4649;42.644;23.284;2023-04-25T03:24:24;92180.06;;;9.63;100.00
9229;BME280;4649;42.644;23.284;2023-04-25T03:27:03;92187.78;;;9.77;100.00
9229;BME280;4649;42.644;23.284;2023-04-25T03:32:42;92099.22;;;9.23;100.00
9229;BME280;4649;42.644;23.284;2023-04-25T03:35:25;91933.28;;;7.65;100.00
9229;BME280;4649;42.644;23.284;2023-04-25T03:38:11;91973.22;;;8.01;100.00
9229;BME280;4649;42.644;23.284;2023-04-25T03:40:56;92020.44;;;8.07;100.00
9229;BME280;4649;42.644;23.284;2023-04-25T03:43:31;92126.47;;;8.90;100.00
9229;BME280;4649;42.644;23.284;2023-04-25T03:48:40;91955.50;;;8.11;100.00
9229;BME280;4649;42.644;23.284;2023-04-25T03:51:19;92155.91;;;9.94;100.00
9229;BME280;4649;42.644;23.284;2023-04-25T03:53:55;91981.31;;;9.49;100.00
9229;BME280;4649;42.644;23.284;2023-04-25T03:56:49;91946.66;;;9.53;100.00
9229;BME280;4649;42.644;23.284;2023-04-25T03:59:16;92024.72;;;10.30;100.00
9229;BME280;4649;42.644;23.284;2023-04-25T04:01:46;91970.25;;;10.08;100.00
9229;BME280;4649;42.644;23.284;2023-04-25T04:04:28;91968.31;;;10.21;100.00
9229;BME280;4649;42.644;23.284;2023-04-25T04:06:57;92124.53;;;11.27;100.00
9229;BME280;4649;42.644;23.284;2023-04-25T04:14:56;91996.41;;;9.81;100.00
9229;BME280;4649;42.644;23.284;2023-04-25T04:17:44;92140.31;;;10.97;100.00
9229;BME280;4649;42.644;23.284;2023-04-25T04:20:51;92106.13;;;10.94;100.00
9229;BME280;4649;42.644;23.284;2023-04-25T04:23:23;92121.94;;;11.22;100.00
9229;BME280;4649;42.644;23.284;2023-04-25T04:25:55;92128.63;;;10.90;100.00
9229;BME280;4649;42.644;23.284;2023-04-25T04:28:25;92112.00;;;10.80;100.00
9229;BME280;4649;42.644;23.284;2023-04-25T04:30:56;92068.72;;;10.31;100.00
9229;BME280;4649;42.644;23.284;2023-04-25T04:33:34;92148.63;;;10.99;100.00
9229;BME280;4649;42.644;23.284;2023-04-25T04:36:07;92082.16;;;10.36;100.00
9229;BME280;4649;42.644;23.284;2023-04-25T04:42:24;92101.00;;;9.39;100.00
9229;BME280;4649;42.644;23.284;2023-04-25T04:45:13;92171.34;;;10.60;100.00
9229;BME280;4649;42.644;23.284;2023-04-25T04:47:46;92185.34;;;11.13;98.61
9229;BME280;4649;42.644;23.284;2023-04-25T04:50:47;92177.94;;;11.45;96.06
9229;BME280;4649;42.644;23.284;2023-04-25T04:53:54;92185.72;;;11.67;95.78
9229;BME280;4649;42.644;23.284;2023-04-25T04:56:36;92107.16;;;11.23;90.53
9229;BME280;4649;42.644;23.284;2023-04-25T05:22:34;92207.84;;;10.53;100.00
9229;BME280;4649;42.644;23.284;2023-04-25T05:25:09;92047.06;;;9.09;100.00
9229;BME280;4649;42.644;23.284;2023-04-25T05:28:17;92071.59;;;9.77;100.00
9229;BME280;4649;42.644;23.284;2023-04-25T05:30:50;92104.31;;;10.34;100.00
9229;BME280;4649;42.644;23.284;2023-04-25T05:33:27;92040.50;;;9.89;100.00
9229;BME280;4649;42.644;23.284;2023-04-25T05:35:59;92053.50;;;9.91;100.00
9229;BME280;4649;42.644;23.284;2023-04-25T05:38:47;92061.59;;;9.72;100.00
9229;BME280;4649;42.644;23.284;2023-04-25T05:41:19;92057.00;;;9.86;100.00
9229;BME280;4649;42.644;23.284;2023-04-25T05:43:50;92081.28;;;10.28;100.00
9229;BME280;4649;42.644;23.284;2023-04-25T05:46:35;92115.84;;;10.53;100.00
9229;BME280;4649;42.644;23.284;2023-04-25T05:49:15;92083.50;;;10.11;100.00
9229;BME280;4649;42.644;23.284;2023-04-25T05:51:46;92013.44;;;8.57;100.00
9229;BME280;4649;42.644;23.284;2023-04-25T05:54:34;92158.28;;;9.56;100.00
9229;BME280;4649;42.644;23.284;2023-04-25T06:02:47;92018.91;;;8.52;100.00
9229;BME280;4649;42.644;23.284;2023-04-25T06:05:48;92012.59;;;8.97;100.00
9229;BME280;4649;42.644;23.284;2023-04-25T06:08:35;92137.59;;;9.64;100.00
9229;BME280;4649;42.644;23.284;2023-04-25T06:11:26;92170.41;;;9.97;100.00
9229;BME280;4649;42.644;23.284;2023-04-25T06:17:05;92055.72;;;9.68;100.00
9229;BME280;4649;42.644;23.284;2023-04-25T06:20:04;92007.56;;;9.30;100.00
9229;BME280;4649;42.644;23.284;2023-04-25T06:22:59;92147.66;;;10.47;100.00
9229;BME280;4649;42.644;23.284;2023-04-25T06:25:51;92129.00;;;9.60;100.00
9229;BME280;4649;42.644;23.284;2023-04-25T06:29:04;92034.59;;;9.72;100.00
9229;BME280;4649;42.644;23.284;2023-04-25T06:31:45;92185.97;;;10.70;100.00
9229;BME280;4649;42.644;23.284;2023-04-25T06:34:21;92019.09;;;9.55;100.00
9229;BME280;4649;42.644;23.284;2023-04-25T06:37:23;92025.44;;;9.75;100.00
9229;BME280;4649;42.644;23.284;2023-04-25T06:40:13;92036.09;;;9.50;100.00
9229;BME280;4649;42.644;23.284;2023-04-25T06:43:27;92167.84;;;10.46;100.00
9229;BME280;4649;42.644;23.284;2023-04-25T06:46:22;92173.91;;;10.52;100.00
9229;BME280;4649;42.644;23.284;2023-04-25T06:51:45;92102.22;;;9.38;100.00
9229;BME280;4649;42.644;23.284;2023-04-25T06:54:37;92157.38;;;10.37;100.00
9229;BME280;4649;42.644;23.284;2023-04-25T07:00:54;92066.56;;;10.11;100.00
9229;BME280;4649;42.644;23.284;2023-04-25T07:03:46;92149.41;;;10.63;100.00
9229;BME280;4649;42.644;23.284;2023-04-25T07:06:35;92143.56;;;11.09;100.00
9229;BME280;4649;42.644;23.284;2023-04-25T07:09:45;92204.75;;;11.93;100.00
9229;BME280;4649;42.644;23.284;2023-04-25T07:18:24;92151.72;;;12.43;100.00
9229;BME280;4649;42.644;23.284;2023-04-25T07:37:26;92083.78;;;11.90;100.00
9229;BME280;4649;42.644;23.284;2023-04-25T07:40:31;92230.06;;;13.65;100.00
9229;BME280;4649;42.644;23.284;2023-04-25T07:43:27;92226.94;;;13.61;100.00
9229;BME280;4649;42.644;23.284;2023-04-25T07:53:01;92111.44;;;12.47;100.00
9229;BME280;4649;42.644;23.284;2023-04-25T07:56:14;92157.44;;;14.00;100.00
9229;BME280;4649;42.644;23.284;2023-04-25T07:59:15;92064.88;;;14.56;97.73
9229;BME280;4649;42.644;23.284;2023-04-25T08:05:35;92229.03;;;17.37;84.48
9229;BME280;4649;42.644;23.284;2023-04-25T08:08:33;92062.94;;;16.99;78.22
9229;BME280;4649;42.644;23.284;2023-04-25T08:11:19;92088.66;;;16.96;70.54
9229;BME280;4649;42.644;23.284;2023-04-25T08:13:46;92153.03;;;18.50;71.29
9229;BME280;4649;42.644;23.284;2023-04-25T08:16:15;92082.78;;;18.04;66.21
9229;BME280;4649;42.644;23.284;2023-04-25T08:18:46;92054.72;;;17.06;66.46
9229;BME280;4649;42.644;23.284;2023-04-25T08:21:26;92215.28;;;18.08;62.85
9229;BME280;4649;42.644;23.284;2023-04-25T08:23:55;92216.13;;;18.42;66.27
9229;BME280;4649;42.644;23.284;2023-04-25T08:26:28;92111.59;;;18.05;56.93
9229;BME280;4649;42.644;23.284;2023-04-25T08:28:56;92057.22;;;18.42;52.99
9229;BME280;4649;42.644;23.284;2023-04-25T08:31:43;92048.56;;;17.95;50.77
9229;BME280;4649;42.644;23.284;2023-04-25T08:34:11;92038.00;;;17.92;56.33
9229;BME280;4649;42.644;23.284;2023-04-25T08:36:38;92063.13;;;17.98;57.71
9229;BME280;4649;42.644;23.284;2023-04-25T08:39:08;92136.50;;;18.40;61.73
9229;BME280;4649;42.644;23.284;2023-04-25T08:41:36;92192.47;;;18.06;58.66
9229;BME280;4649;42.644;23.284;2023-04-25T08:44:03;92210.25;;;18.46;60.27
9229;BME280;4649;42.644;23.284;2023-04-25T08:46:31;92134.09;;;18.44;56.89
9229;BME280;4649;42.644;23.284;2023-04-25T08:49:01;92032.06;;;18.20;58.34
9229;BME280;4649;42.644;23.284;2023-04-25T08:51:31;92105.03;;;19.09;55.91
9229;BME280;4649;42.644;23.284;2023-04-25T08:54:09;92185.63;;;20.09;53.34
9229;BME280;4649;42.644;23.284;2023-04-25T08:56:37;92181.13;;;20.49;51.69
9229;BME280;4649;42.644;23.284;2023-04-25T08:59:05;92156.41;;;20.68;49.75
9229;BME280;4649;42.644;23.284;2023-04-25T09:01:33;92186.00;;;21.34;48.18
9229;BME280;4649;42.644;23.284;2023-04-25T09:04:01;92184.41;;;21.59;48.19
9229;BME280;4649;42.644;23.284;2023-04-25T09:06:28;92145.72;;;20.72;44.78
9229;BME280;4649;42.644;23.284;2023-04-25T09:09:02;92090.34;;;20.12;49.46
9229;BME280;4649;42.644;23.284;2023-04-25T09:11:31;92189.16;;;20.74;45.44
9229;BME280;4649;42.644;23.284;2023-04-25T09:14:10;92184.63;;;20.69;46.66
9229;BME280;4649;42.644;23.284;2023-04-25T09:16:57;92197.22;;;20.72;44.47
9229;BME280;4649;42.644;23.284;2023-04-25T09:19:25;92102.22;;;19.78;43.12
9229;BME280;4649;42.644;23.284;2023-04-25T09:21:54;92190.50;;;19.75;48.26
9229;BME280;4649;42.644;23.284;2023-04-25T09:24:30;92199.53;;;19.42;49.78
9229;BME280;4649;42.644;23.284;2023-04-25T09:26:58;92189.22;;;19.33;51.65
9229;BME280;4649;42.644;23.284;2023-04-25T09:29:30;92182.47;;;19.17;51.21
9229;BME280;4649;42.644;23.284;2023-04-25T09:32:11;92097.28;;;18.14;54.25
9229;BME280;4649;42.644;23.284;2023-04-25T09:34:44;92128.63;;;17.55;54.81
9229;BME280;4649;42.644;23.284;2023-04-25T09:37:18;92128.94;;;17.34;51.97
9229;BME280;4649;42.644;23.284;2023-04-25T09:39:46;91991.22;;;15.36;58.34
9229;BME280;4649;42.644;23.284;2023-04-25T09:42:25;92005.00;;;14.93;63.71
9229;BME280;4649;42.644;23.284;2023-04-25T09:45:07;91997.31;;;14.55;67.07
9229;BME280;4649;42.644;23.284;2023-04-25T09:47:46;92017.84;;;14.56;66.13
9229;BME280;4649;42.644;23.284;2023-04-25T09:50:21;92040.63;;;15.10;65.28
9229;BME280;4649;42.644;23.284;2023-04-25T09:53:03;91999.19;;;15.19;66.40
9229;BME280;4649;42.644;23.284;2023-04-25T09:55:38;91970.84;;;14.85;59.86
9229;BME280;4649;42.644;23.284;2023-04-25T09:58:45;92182.88;;;16.33;57.89
9229;BME280;4649;42.644;23.284;2023-04-25T10:01:52;92181.19;;;16.60;53.76
9229;BME280;4649;42.644;23.284;2023-04-25T10:04:38;92060.56;;;16.09;52.94
9229;BME280;4649;42.644;23.284;2023-04-25T10:07:09;91975.91;;;15.63;53.30
9229;BME280;4649;42.644;23.284;2023-04-25T10:09:39;92070.34;;;16.42;51.83
9229;BME280;4649;42.644;23.284;2023-04-25T10:12:07;92123.41;;;16.63;51.19
9229;BME280;4649;42.644;23.284;2023-04-25T10:14:36;92206.13;;;17.10;52.43
9229;BME280;4649;42.644;23.284;2023-04-25T10:17:07;92077.84;;;16.19;54.62
9229;BME280;4649;42.644;23.284;2023-04-25T10:19:37;92069.59;;;16.34;53.63
9229;BME280;4649;42.644;23.284;2023-04-25T10:22:07;92108.09;;;16.68;56.16
9229;BME280;4649;42.644;23.284;2023-04-25T10:24:35;92164.47;;;17.66;57.91
9229;BME280;4649;42.644;23.284;2023-04-25T10:27:03;92073.09;;;17.37;55.97
9229;BME280;4649;42.644;23.284;2023-04-25T10:29:32;92056.25;;;17.48;49.90
9229;BME280;4649;42.644;23.284;2023-04-25T10:32:02;92154.63;;;18.53;48.06
9229;BME280;4649;42.644;23.284;2023-04-25T10:34:40;92053.19;;;18.43;47.20
9229;BME280;4649;42.644;23.284;2023-04-25T10:37:09;92098.19;;;19.00;44.63
9229;BME280;4649;42.644;23.284;2023-04-25T10:39:38;92129.78;;;19.45;42.84
9229;BME280;4649;42.644;23.284;2023-04-25T10:42:06;92021.50;;;18.93;41.85
9229;BME280;4649;42.644;23.284;2023-04-25T10:44:34;92064.09;;;18.94;42.46
9229;BME280;4649;42.644;23.284;2023-04-25T10:47:02;92166.56;;;19.58;45.11
9229;BME280;4649;42.644;23.284;2023-04-25T10:49:32;92172.19;;;19.87;43.67
9229;BME280;4649;42.644;23.284;2023-04-25T10:52:19;92177.94;;;19.81;42.09
9229;BME280;4649;42.644;23.284;2023-04-25T10:54:52;92123.50;;;19.52;42.78
9229;BME280;4649;42.644;23.284;2023-04-25T10:57:29;92182.63;;;19.88;41.49
9229;BME280;4649;42.644;23.284;2023-04-25T11:00:06;92160.03;;;19.80;42.62
9229;BME280;4649;42.644;23.284;2023-04-25T11:02:40;92048.78;;;18.74;43.75
9229;BME280;4649;42.644;23.284;2023-04-25T11:05:08;92157.84;;;19.26;42.57
9229;BME280;4649;42.644;23.284;2023-04-25T11:07:39;92022.75;;;17.81;43.23
9229;BME280;4649;42.644;23.284;2023-04-25T11:10:10;91972.56;;;16.97;47.56
9229;BME280;4649;42.644;23.284;2023-04-25T11:12:37;92078.16;;;16.85;46.28
9229;BME280;4649;42.644;23.284;2023-04-25T11:15:06;92075.41;;;17.48;47.37
9229;BME280;4649;42.644;23.284;2023-04-25T11:17:33;92046.81;;;17.42;45.39
9229;BME280;4649;42.644;23.284;2023-04-25T11:20:02;91991.66;;;17.04;45.58
9229;BME280;4649;42.644;23.284;2023-04-25T11:22:33;92150.22;;;18.74;45.68
9229;BME280;4649;42.644;23.284;2023-04-25T11:25:05;92114.00;;;18.76;43.36
9229;BME280;4649;42.644;23.284;2023-04-25T11:27:32;92084.19;;;18.63;45.00
9229;BME280;4649;42.644;23.284;2023-04-25T11:30:09;92147.22;;;19.13;45.70
9229;BME280;4649;42.644;23.284;2023-04-25T11:32:36;92078.97;;;18.57;46.94
9229;BME280;4649;42.644;23.284;2023-04-25T11:35:06;92049.81;;;17.94;47.51
9229;BME280;4649;42.644;23.284;2023-04-25T11:37:33;92035.34;;;17.60;49.67
9229;BME280;4649;42.644;23.284;2023-04-25T11:40:00;92072.44;;;17.29;53.85
9229;BME280;4649;42.644;23.284;2023-04-25T11:42:27;92175.09;;;17.86;56.44
9229;BME280;4649;42.644;23.284;2023-04-25T11:44:54;92130.00;;;17.00;58.84
9229;BME280;4649;42.644;23.284;2023-04-25T11:47:30;92034.22;;;15.89;59.95
9229;BME280;4649;42.644;23.284;2023-04-25T11:50:00;92119.00;;;14.74;67.31
9229;BME280;4649;42.644;23.284;2023-04-25T11:53:03;92210.09;;;14.31;72.05
9229;BME280;4649;42.644;23.284;2023-04-25T11:55:50;92114.53;;;11.92;89.56
9229;BME280;4649;42.644;23.284;2023-04-25T11:59:05;92096.06;;;11.08;91.94
9229;BME280;4649;42.644;23.284;2023-04-25T12:01:59;92105.75;;;11.60;98.18
9229;BME280;4649;42.644;23.284;2023-04-25T12:04:33;91949.53;;;10.86;96.21
9229;BME280;4649;42.644;23.284;2023-04-25T12:07:28;92032.81;;;12.21;90.31
9229;BME280;4649;42.644;23.284;2023-04-25T12:12:46;91951.22;;;12.93;81.42
9229;BME280;4649;42.644;23.284;2023-04-25T12:15:42;91951.13;;;13.41;71.83
9229;BME280;4649;42.644;23.284;2023-04-25T12:18:27;91966.78;;;13.91;73.07
9229;BME280;4649;42.644;23.284;2023-04-25T12:20:56;91996.94;;;14.51;72.30
9229;BME280;4649;42.644;23.284;2023-04-25T12:23:30;92084.84;;;15.53;68.81
9229;BME280;4649;42.644;23.284;2023-04-25T12:26:03;92000.09;;;15.07;71.13
9229;BME280;4649;42.644;23.284;2023-04-25T12:28:50;91999.22;;;15.26;70.65
9229;BME280;4649;42.644;23.284;2023-04-25T12:31:20;92078.06;;;15.91;61.80
9229;BME280;4649;42.644;23.284;2023-04-25T12:33:51;92048.25;;;15.79;60.97
9229;BME280;4649;42.644;23.284;2023-04-25T12:36:22;92011.56;;;15.65;62.91
9229;BME280;4649;42.644;23.284;2023-04-25T12:38:52;92003.00;;;15.01;66.23
9229;BME280;4649;42.644;23.284;2023-04-25T12:41:23;92039.16;;;14.87;66.91
9229;BME280;4649;42.644;23.284;2023-04-25T12:44:33;92012.25;;;14.11;66.73
9229;BME280;4649;42.644;23.284;2023-04-25T12:47:29;92114.72;;;15.01;67.82
9229;BME280;4649;42.644;23.284;2023-04-25T12:50:07;92046.16;;;14.67;65.84
9229;BME280;4649;42.644;23.284;2023-04-25T12:52:47;92218.88;;;15.80;65.63
9229;BME280;4649;42.644;23.284;2023-04-25T12:55:15;92101.66;;;15.07;65.84
9229;BME280;4649;42.644;23.284;2023-04-25T12:57:49;92159.56;;;15.58;66.89
9229;BME280;4649;42.644;23.284;2023-04-25T13:00:19;92132.63;;;15.32;68.76
9229;BME280;4649;42.644;23.284;2023-04-25T13:02:47;92118.56;;;15.13;70.09
9229;BME280;4649;42.644;23.284;2023-04-25T13:05:14;92022.75;;;14.64;69.82
9229;BME280;4649;42.644;23.284;2023-04-25T13:07:43;92065.22;;;14.67;73.96
9229;BME280;4649;42.644;23.284;2023-04-25T13:10:21;92107.56;;;14.26;79.73
9229;BME280;4649;42.644;23.284;2023-04-25T13:16:12;92190.31;;;14.30;82.52
9229;BME280;4649;42.644;23.284;2023-04-25T13:18:59;92025.78;;;12.92;85.49
9229;BME280;4649;42.644;23.284;2023-04-25T13:21:31;92091.22;;;13.02;89.41
9229;BME280;4649;42.644;23.284;2023-04-25T13:24:00;92174.06;;;13.49;89.15
9229;BME280;4649;42.644;23.284;2023-04-25T13:26:48;92012.66;;;11.97;85.15
9229;BME280;4649;42.644;23.284;2023-04-25T13:29:18;92073.31;;;12.19;90.50
9229;BME280;4649;42.644;23.284;2023-04-25T13:32:19;92233.31;;;12.84;91.26
9229;BME280;4649;42.644;23.284;2023-04-25T13:35:00;92065.84;;;11.74;93.84
9229;BME280;4649;42.644;23.284;2023-04-25T13:37:49;92089.78;;;11.44;96.90
9229;BME280;4649;42.644;23.284;2023-04-25T13:40:41;92230.00;;;12.39;99.40
9229;BME280;4649;42.644;23.284;2023-04-25T13:43:33;92043.09;;;11.25;97.78
9229;BME280;4649;42.644;23.284;2023-04-25T13:46:19;92033.69;;;11.00;96.08
9229;BME280;4649;42.644;23.284;2023-04-25T13:49:09;91991.72;;;10.50;97.68
9229;BME280;4649;42.644;23.284;2023-04-25T13:52:12;91989.50;;;10.67;94.73
9229;BME280;4649;42.644;23.284;2023-04-25T13:55:17;92174.38;;;11.68;93.91
9229;BME280;4649;42.644;23.284;2023-04-25T14:01:54;92149.88;;;11.87;100.00
9229;BME280;4649;42.644;23.284;2023-04-25T14:04:26;92165.81;;;12.55;100.00
9229;BME280;4649;42.644;23.284;2023-04-25T14:07:53;92098.47;;;12.53;100.00
9229;BME280;4649;42.644;23.284;2023-04-25T14:11:23;91962.59;;;12.31;100.00
9229;BME280;4649;42.644;23.284;2023-04-25T14:14:21;92039.88;;;13.32;95.43
9229;BME280;4649;42.644;23.284;2023-04-25T14:16:57;92070.25;;;13.78;92.71
9229;BME280;4649;42.644;23.284;2023-04-25T14:19:51;92153.75;;;14.46;92.63
9229;BME280;4649;42.644;23.284;2023-04-25T14:26:04;92143.53;;;14.39;92.29
9229;BME280;4649;42.644;23.284;2023-04-25T14:29:08;92030.16;;;13.71;90.26
9229;BME280;4649;42.644;23.284;2023-04-25T14:31:40;92077.13;;;14.07;90.19
9229;BME280;4649;42.644;23.284;2023-04-25T14:34:30;92152.47;;;14.40;91.19
9229;BME280;4649;42.644;23.284;2023-04-25T14:50:01;91979.66;;;12.79;95.16
9229;BME280;4649;42.644;23.284;2023-04-25T14:52:43;91974.03;;;12.98;89.39
9229;BME280;4649;42.644;23.284;2023-04-25T14:55:20;92096.47;;;13.96;91.03
9229;BME280;4649;42.644;23.284;2023-04-25T14:58:11;92040.53;;;13.80;86.89
9229;BME280;4649;42.644;23.284;2023-04-25T15:00:47;92160.44;;;14.80;88.61
9229;BME280;4649;42.644;23.284;2023-04-25T15:03:17;91974.69;;;13.74;87.05
9229;BME280;4649;42.644;23.284;2023-04-25T15:05:56;92057.25;;;14.12;82.24
9229;BME280;4649;42.644;23.284;2023-04-25T15:08:24;92143.34;;;14.80;85.43
9229;BME280;4649;42.644;23.284;2023-04-25T15:10:53;91951.97;;;13.64;85.49
9229;BME280;4649;42.644;23.284;2023-04-25T15:13:32;91955.88;;;13.76;81.95
9229;BME280;4649;42.644;23.284;2023-04-25T15:16:14;91992.16;;;13.86;85.47
9229;BME280;4649;42.644;23.284;2023-04-25T15:18:54;91982.88;;;13.82;84.45
9229;BME280;4649;42.644;23.284;2023-04-25T15:45:11;92107.88;;;13.95;94.51
9229;BME280;4649;42.644;23.284;2023-04-25T15:48:04;91958.59;;;12.93;92.65
9229;BME280;4649;42.644;23.284;2023-04-25T15:50:47;92107.72;;;13.93;90.93
9229;BME280;4649;42.644;23.284;2023-04-25T16:28:05;91946.31;;;12.31;92.77
9229;BME280;4649;42.644;23.284;2023-04-25T16:35:26;92037.84;;;12.71;94.15
9229;BME280;4649;42.644;23.284;2023-04-25T17:32:07;92094.47;;;11.31;100.00
9229;BME280;4649;42.644;23.284;2023-04-25T17:53:26;92193.63;;;11.52;100.00
9229;BME280;4649;42.644;23.284;2023-04-25T18:04:38;92031.25;;;10.03;100.00
9229;BME280;4649;42.644;23.284;2023-04-25T18:32:07;92025.97;;;9.32;100.00
9229;BME280;4649;42.644;23.284;2023-04-25T18:34:52;91997.63;;;9.20;100.00
9229;BME280;4649;42.644;23.284;2023-04-25T18:37:58;92201.94;;;10.73;100.00
9229;BME280;4649;42.644;23.284;2023-04-25T18:44:35;92008.03;;;9.34;100.00
9229;BME280;4649;42.644;23.284;2023-04-25T18:47:54;92131.34;;;10.16;100.00
9229;BME280;4649;42.644;23.284;2023-04-25T18:50:40;92093.72;;;10.00;100.00
9229;BME280;4649;42.644;23.284;2023-04-25T18:53:21;92081.16;;;10.02;100.00
9229;BME280;4649;42.644;23.284;2023-04-25T18:56:09;91999.59;;;9.62;100.00
9229;BME280;4649;42.644;23.284;2023-04-25T19:01:29;92116.81;;;10.56;100.00
9229;BME280;4649;42.644;23.284;2023-04-25T19:20:23;92214.25;;;11.55;89.93
9229;BME280;4649;42.644;23.284;2023-04-25T19:23:24;92007.44;;;10.02;90.04
9229;BME280;4649;42.644;23.284;2023-04-25T19:26:27;92012.25;;;10.09;88.97
9229;BME280;4649;42.644;23.284;2023-04-25T19:29:12;92129.28;;;11.08;89.50
9229;BME280;4649;42.644;23.284;2023-04-25T19:32:07;92214.41;;;11.75;90.68
9229;BME280;4649;42.644;23.284;2023-04-25T19:34:47;92221.81;;;11.75;91.33
9229;BME280;4649;42.644;23.284;2023-04-25T19:37:22;92093.72;;;10.86;92.33
9229;BME280;4649;42.644;23.284;2023-04-25T19:40:00;92217.28;;;11.64;91.64
9229;BME280;4649;42.644;23.284;2023-04-25T19:43:02;92015.81;;;10.35;92.43
9229;BME280;4649;42.644;23.284;2023-04-25T19:45:50;92223.47;;;11.65;93.05
9229;BME280;4649;42.644;23.284;2023-04-25T19:52:20;92223.69;;;11.49;94.68
9229;BME280;4649;42.644;23.284;2023-04-25T20:14:17;92143.09;;;10.74;86.22
9229;BME280;4649;42.644;23.284;2023-04-25T20:16:47;92060.41;;;10.10;87.16
9229;BME280;4649;42.644;23.284;2023-04-25T20:19:17;92159.84;;;10.91;88.46
9229;BME280;4649;42.644;23.284;2023-04-25T20:24:31;92036.00;;;10.16;90.90
9229;BME280;4649;42.644;23.284;2023-04-25T20:30:40;92224.94;;;11.16;87.98
9229;BME280;4649;42.644;23.284;2023-04-25T20:33:36;92090.72;;;10.03;90.75
9229;BME280;4649;42.644;23.284;2023-04-25T20:40:37;92224.28;;;10.74;90.62
9229;BME280;4649;42.644;23.284;2023-04-25T20:43:46;92228.81;;;10.84;91.88
9229;BME280;4649;42.644;23.284;2023-04-25T22:38:03;92027.28;;;7.68;100.00
9229;BME280;4649;42.644;23.284;2023-04-25T22:50:34;92201.66;;;9.05;100.00
